Time;durP1;ratioP1;P1;durP2;ratioP2;P2;SDS_P1;SDS_P2;PMS_P1;PMS_P2;Temp;Humidity;BMP_temperature;BMP_pressure;BME280_temperature;BME280_humidity;BME280_pressure;Samples;Min_cycle;Max_cycle;Signal;HPM_P1;HPM_P2
2023/01/01 00:00:29;;;;;;;20.10;14.90;;;;;;;12.70;81.53;100211.55;107645;1254;98654;-59
2023/01/01 00:03:31;;;;;;;16.70;12.90;;;;;;;12.70;81.50;100219.47;107645;1254;90193;-58
2023/01/01 00:06:14;;;;;;;12.40;9.50;;;;;;;12.70;81.47;100218.44;107600;1252;93860;-59
2023/01/01 00:10:26;;;;;;;15.40;11.60;;;;;;;12.74;81.37;100223.35;107646;1254;77903;-58
2023/01/01 00:11:57;;;;;;;23.00;13.00;;;;;;;12.78;81.27;100218.52;107676;1252;81986;-57
2023/01/01 00:14:34;;;;;;;13.70;10.00;;;;;;;12.75;81.42;100212.31;107603;1254;99918;-61
2023/01/01 00:17:14;;;;;;;15.80;10.60;;;;;;;12.69;81.32;100213.84;107722;1256;87531;-60
2023/01/01 00:19:49;;;;;;;13.40;6.90;;;;;;;12.66;81.22;100214.17;107552;1254;95079;-59
2023/01/01 00:22:33;;;;;;;9.60;6.40;;;;;;;12.67;81.31;100213.50;107655;1253;81756;-58
2023/01/01 00:25:12;;;;;;;12.00;7.30;;;;;;;12.67;81.42;100217.10;107666;1252;83090;-59
2023/01/01 00:27:53;;;;;;;7.60;5.50;;;;;;;12.69;81.30;100218.17;107603;1252;100649;-63
2023/01/01 00:30:29;;;;;;;16.70;10.90;;;;;;;12.72;81.18;100216.60;107656;1254;88845;-61
2023/01/01 00:33:05;;;;;;;14.70;9.30;;;;;;;12.76;81.19;100214.27;107666;1252;93799;-65
2023/01/01 00:35:45;;;;;;;11.20;7.60;;;;;;;12.77;81.20;100219.64;107681;1252;79166;-58
2023/01/01 00:38:24;;;;;;;14.60;9.70;;;;;;;12.76;81.14;100220.19;107702;1252;81564;-58
2023/01/01 00:41:05;;;;;;;16.30;10.40;;;;;;;12.75;81.15;100220.64;107627;1254;98129;-59
2023/01/01 00:43:43;;;;;;;10.30;6.20;;;;;;;12.73;81.05;100224.82;107677;1254;87951;-58
2023/01/01 00:46:19;;;;;;;9.40;6.30;;;;;;;12.72;81.05;100223.46;107556;1254;92179;-65
2023/01/01 00:48:56;;;;;;;15.80;10.60;;;;;;;12.69;81.00;100221.52;107645;1253;81655;-62
2023/01/01 00:51:31;;;;;;;9.10;6.70;;;;;;;12.71;80.92;100226.58;107696;1253;80314;-66
2023/01/01 00:54:08;;;;;;;8.80;5.40;;;;;;;12.70;80.93;100229.27;107653;1253;99450;-57
2023/01/01 00:56:47;;;;;;;9.50;7.00;;;;;;;12.69;81.05;100230.90;107700;1254;87891;-64
2023/01/01 00:59:29;;;;;;;9.10;7.20;;;;;;;12.67;81.01;100224.59;107636;1253;95237;-59
2023/01/01 01:02:07;;;;;;;10.80;6.90;;;;;;;12.69;81.12;100221.86;107599;1254;80716;-57
2023/01/01 01:04:44;;;;;;;11.00;7.40;;;;;;;12.68;81.01;100230.61;107572;1256;82811;-57
2023/01/01 01:07:26;;;;;;;10.00;6.40;;;;;;;12.65;81.02;100232.10;107621;1254;99335;-58
2023/01/01 01:10:03;;;;;;;8.80;6.10;;;;;;;12.62;81.03;100233.43;107639;1253;89452;-58
2023/01/01 01:12:39;;;;;;;9.60;5.70;;;;;;;12.58;81.07;100232.97;107675;1254;94119;-58
2023/01/01 01:15:17;;;;;;;9.60;5.70;;;;;;;12.57;80.95;100231.68;107684;1252;81018;-58
2023/01/01 01:17:54;;;;;;;9.20;5.60;;;;;;;12.57;80.95;100233.52;107651;1253;82314;-59
2023/01/01 01:20:38;;;;;;;8.30;5.20;;;;;;;12.56;81.00;100234.26;107681;1253;97902;-59
2023/01/01 01:23:19;;;;;;;12.20;6.70;;;;;;;12.56;81.00;100239.84;107638;1254;86505;-60
2023/01/01 01:26:06;;;;;;;10.10;6.40;;;;;;;12.54;81.05;100246.22;107621;1254;94739;-63
2023/01/01 01:28:40;;;;;;;8.00;5.20;;;;;;;12.55;81.01;100240.85;107683;1251;79378;-63
2023/01/01 01:31:22;;;;;;;9.00;5.20;;;;;;;12.59;80.95;100237.65;107681;1250;83600;-62
2023/01/01 01:33:59;;;;;;;7.00;5.30;;;;;;;12.61;80.92;100241.81;107699;1250;97373;-61
2023/01/01 01:36:34;;;;;;;9.90;5.80;;;;;;;12.60;80.80;100241.05;107718;1251;87919;-64
2023/01/01 01:39:16;;;;;;;7.30;4.60;;;;;;;12.59;80.76;100235.39;107672;1251;94825;-61
2023/01/01 01:41:56;;;;;;;8.20;5.50;;;;;;;12.61;80.72;100236.77;107686;1251;81324;-63
2023/01/01 01:45:00;;;;;;;8.30;5.40;;;;;;;12.62;80.76;100233.05;107595;1251;85087;-64
2023/01/01 01:47:42;;;;;;;9.60;6.00;;;;;;;12.62;80.74;100237.39;107736;1251;99572;-61
2023/01/01 01:50:26;;;;;;;8.40;5.10;;;;;;;12.63;80.63;100231.09;107672;1251;89334;-64
2023/01/01 01:53:14;;;;;;;6.70;4.90;;;;;;;12.66;80.56;100237.78;107729;1251;93826;-66
2023/01/01 01:56:04;;;;;;;7.80;5.10;;;;;;;12.68;80.47;100233.86;107715;1256;80279;-64
2023/01/01 01:58:51;;;;;;;7.50;4.90;;;;;;;12.67;80.34;100232.89;107692;1251;83391;-58
2023/01/01 02:01:32;;;;;;;7.00;4.90;;;;;;;12.65;80.22;100228.65;107659;1251;101279;-56
2023/01/01 02:04:08;;;;;;;7.00;4.90;;;;;;;12.65;80.14;100229.14;107680;1251;88305;-56
2023/01/01 02:06:54;;;;;;;7.20;4.80;;;;;;;12.67;79.93;100224.64;107706;1251;95146;-59
2023/01/01 02:09:36;;;;;;;7.40;5.00;;;;;;;12.65;80.00;100217.05;107616;1253;81260;-57
2023/01/01 02:12:19;;;;;;;9.00;5.70;;;;;;;12.67;79.95;100217.30;107720;1251;83401;-57
2023/01/01 02:14:59;;;;;;;;;;;;;;;12.67;79.95;100228.60;107680;1251;97879;-61
2023/01/01 02:17:48;;;;;;;7.90;4.70;;;;;;;12.67;79.81;100227.27;107667;1251;87965;-59
2023/01/01 02:20:42;;;;;;;9.00;5.10;;;;;;;12.67;79.63;100230.77;107709;1255;93705;-61
2023/01/01 02:23:59;;;;;;;8.50;5.40;;;;;;;12.65;79.69;100229.55;107704;1251;80787;-60
2023/01/01 02:27:07;;;;;;;10.30;5.20;;;;;;;12.64;79.45;100231.65;107649;1251;81635;-65
2023/01/01 02:29:53;;;;;;;7.80;5.10;;;;;;;12.67;79.41;100232.19;107702;1251;97559;-63
2023/01/01 02:32:34;;;;;;;8.80;5.60;;;;;;;12.70;79.28;100230.52;107674;1251;86678;-63
2023/01/01 02:35:37;;;;;;;7.50;5.70;;;;;;;12.72;79.16;100229.31;107714;1251;95040;-60
2023/01/01 02:38:30;;;;;;;9.20;5.10;;;;;;;12.72;79.08;100226.77;107644;1251;78300;-58
2023/01/01 02:41:17;;;;;;;9.40;6.20;;;;;;;12.69;79.06;100221.39;107647;1251;82668;-58
2023/01/01 02:43:57;;;;;;;8.60;5.30;;;;;;;12.69;78.94;100209.30;107689;1251;99154;-62
2023/01/01 02:46:37;;;;;;;8.00;5.00;;;;;;;12.72;79.00;100211.92;107655;1251;89059;-58
2023/01/01 02:49:23;;;;;;;9.40;5.40;;;;;;;12.72;78.92;100215.71;107684;1251;94475;-63
2023/01/01 02:52:12;;;;;;;9.10;5.70;;;;;;;12.71;78.84;100211.67;107720;1251;78630;-63
2023/01/01 02:55:02;;;;;;;7.50;5.10;;;;;;;12.78;78.47;100211.64;107689;1251;80974;-60
2023/01/01 02:57:43;;;;;;;7.90;4.70;;;;;;;12.82;78.54;100210.11;107674;1255;100373;-57
2023/01/01 03:00:32;;;;;;;7.10;4.80;;;;;;;12.82;78.24;100203.00;107650;1252;87356;-58
2023/01/01 03:03:26;;;;;;;6.90;4.50;;;;;;;12.82;78.25;100199.75;107713;1251;94064;-61
2023/01/01 03:06:26;;;;;;;7.70;5.50;;;;;;;12.81;77.98;100193.29;107648;1251;81779;-62
2023/01/01 03:09:16;;;;;;;7.20;4.50;;;;;;;12.85;78.12;100196.92;107682;1251;83545;-60
2023/01/01 03:12:06;;;;;;;7.60;4.10;;;;;;;12.92;77.84;100192.32;107664;1251;99494;-62
2023/01/01 03:14:48;;;;;;;6.10;4.20;;;;;;;12.98;77.79;100192.08;107699;1251;87703;-61
2023/01/01 03:17:37;;;;;;;7.50;4.70;;;;;;;12.97;77.61;100186.56;107706;1251;93239;-56
2023/01/01 03:20:22;;;;;;;6.80;4.70;;;;;;;12.99;77.51;100191.45;107642;1251;80968;-57
2023/01/01 03:23:04;;;;;;;8.00;4.30;;;;;;;12.97;77.55;100189.66;107709;1251;82118;-57
2023/01/01 03:25:45;;;;;;;5.90;3.90;;;;;;;12.98;77.32;100191.20;107692;1251;100183;-57
2023/01/01 03:28:28;;;;;;;8.80;4.20;;;;;;;13.00;77.15;100211.31;107548;1251;88573;-55
2023/01/01 03:31:15;;;;;;;6.60;4.80;;;;;;;13.03;77.06;100220.69;107693;1251;93557;-55
2023/01/01 03:34:01;;;;;;;5.70;4.00;;;;;;;13.02;77.05;100226.35;107759;1251;80572;-58
2023/01/01 03:36:39;;;;;;;6.30;4.00;;;;;;;13.02;76.92;100228.77;107762;1251;83349;-59
2023/01/01 03:39:31;;;;;;;7.10;4.20;;;;;;;13.00;76.95;100233.20;107679;1251;100273;-59
2023/01/01 03:42:18;;;;;;;7.20;5.00;;;;;;;12.99;76.85;100243.52;107653;1251;88956;-61
2023/01/01 03:45:09;;;;;;;6.50;4.30;;;;;;;12.99;76.58;100240.17;107685;1251;93807;-61
2023/01/01 03:47:51;;;;;;;7.10;4.00;;;;;;;13.02;76.78;100251.17;107688;1251;81853;-59
2023/01/01 03:50:49;;;;;;;6.20;4.00;;;;;;;13.05;76.70;100253.02;107653;1255;80568;-62
2023/01/01 03:53:39;;;;;;;6.50;4.80;;;;;;;13.06;76.65;100248.47;107666;1255;98577;-58
2023/01/01 03:56:28;;;;;;;5.50;4.00;;;;;;;13.07;76.31;100247.96;107672;1251;88062;-62
2023/01/01 03:59:17;;;;;;;7.00;4.40;;;;;;;13.06;76.34;100246.92;107660;1251;95421;-63
2023/01/01 04:02:03;;;;;;;6.60;4.00;;;;;;;13.02;75.99;100250.77;107668;1251;79113;-57
2023/01/01 04:04:46;;;;;;;6.20;4.10;;;;;;;12.99;76.11;100252.65;107703;1251;82673;-63
2023/01/01 04:07:37;;;;;;;7.20;4.60;;;;;;;12.96;76.07;100258.40;107705;1250;98917;-59
2023/01/01 04:10:17;;;;;;;6.80;3.90;;;;;;;12.92;76.12;100256.40;107648;1251;88609;-63
2023/01/01 04:13:03;;;;;;;5.70;4.50;;;;;;;12.89;76.03;100259.73;107658;1256;93353;-59
2023/01/01 04:15:47;;;;;;;6.50;4.20;;;;;;;12.88;76.06;100256.23;107680;1251;79594;-59
2023/01/01 04:18:22;;;;;;;4.90;3.70;;;;;;;12.84;76.09;100261.27;107779;1251;83219;-58
2023/01/01 04:21:02;;;;;;;8.40;4.00;;;;;;;12.81;76.08;100264.56;107692;1255;100645;-62
2023/01/01 04:23:45;;;;;;;5.90;4.30;;;;;;;12.81;76.05;100271.13;107710;1251;89374;-60
2023/01/01 04:26:27;;;;;;;;;;;;;;;12.80;75.97;100266.19;107714;1251;95502;-59
2023/01/01 04:29:12;;;;;;;6.60;4.20;;;;;;;12.82;75.87;100264.44;107682;1251;82223;-61
2023/01/01 04:31:55;;;;;;;7.70;4.60;;;;;;;12.85;75.99;100271.59;107685;1251;82475;-60
2023/01/01 04:34:35;;;;;;;6.60;4.10;;;;;;;12.88;75.72;100271.66;107713;1251;99651;-62
2023/01/01 04:37:18;;;;;;;6.10;4.40;;;;;;;12.91;75.72;100274.77;107648;1251;88569;-60
2023/01/01 04:40:01;;;;;;;5.40;4.40;;;;;;;12.91;75.60;100278.38;107696;1251;95681;-60
2023/01/01 04:42:38;;;;;;;5.00;3.90;;;;;;;12.89;75.55;100279.96;107658;1251;80084;-59
2023/01/01 04:45:22;;;;;;;6.70;4.40;;;;;;;12.85;75.46;100282.38;107682;1251;82731;-66
2023/01/01 04:48:09;;;;;;;5.90;3.70;;;;;;;12.86;75.38;100276.88;107678;1256;97807;-59
2023/01/01 04:50:58;;;;;;;5.30;3.90;;;;;;;12.85;75.50;100278.68;107625;1251;88416;-63
2023/01/01 04:53:36;;;;;;;6.30;3.50;;;;;;;12.82;75.57;100275.91;107672;1251;94416;-64
2023/01/01 04:56:12;;;;;;;6.50;4.40;;;;;;;12.82;75.28;100277.79;107675;1256;79547;-62
2023/01/01 04:58:52;;;;;;;5.60;3.80;;;;;;;12.86;75.30;100283.05;107721;1251;79576;-61
2023/01/01 05:01:30;;;;;;;6.40;3.80;;;;;;;12.87;75.04;100282.59;107680;1251;98232;-61
2023/01/01 05:04:13;;;;;;;6.20;4.00;;;;;;;12.85;75.17;100288.39;107726;1251;89133;-61
2023/01/01 05:06:52;;;;;;;7.10;4.20;;;;;;;12.83;74.87;100293.23;107680;1251;94894;-59
2023/01/01 05:09:32;;;;;;;8.30;4.00;;;;;;;12.82;74.98;100293.31;107686;1251;81870;-63
2023/01/01 05:12:11;;;;;;;6.30;3.60;;;;;;;12.80;74.96;100287.04;107733;1251;82123;-62
2023/01/01 05:14:54;;;;;;;5.50;3.70;;;;;;;12.79;74.96;100281.87;107702;1251;99770;-62
2023/01/01 05:17:38;;;;;;;5.40;3.80;;;;;;;12.78;74.96;100280.48;107730;1251;87335;-62
2023/01/01 05:20:15;;;;;;;7.80;4.40;;;;;;;12.76;74.92;100279.73;107666;1251;94007;-62
2023/01/01 05:22:56;;;;;;;5.50;4.10;;;;;;;12.75;74.97;100287.33;107690;1251;79359;-59
2023/01/01 05:25:36;;;;;;;6.60;4.00;;;;;;;12.71;74.96;100286.32;107661;1251;83311;-60
2023/01/01 05:28:14;;;;;;;6.10;4.00;;;;;;;12.72;74.68;100290.02;107729;1251;99903;-60
2023/01/01 05:30:52;;;;;;;5.40;3.90;;;;;;;12.71;74.82;100295.44;107658;1251;87245;-59
2023/01/01 05:33:29;;;;;;;5.20;3.90;;;;;;;12.68;74.79;100296.02;107671;1251;94246;-61
2023/01/01 05:36:11;;;;;;;5.70;3.80;;;;;;;12.65;74.76;100300.57;107552;1254;80294;-59
2023/01/01 05:38:50;;;;;;;5.90;3.70;;;;;;;12.65;74.77;100300.16;107693;1251;81165;-58
2023/01/01 05:41:29;;;;;;;6.80;3.90;;;;;;;12.65;74.75;100312.99;107693;1251;99089;-58
2023/01/01 05:44:18;;;;;;;6.10;4.30;;;;;;;12.65;74.69;100313.03;107688;1251;87863;-59
2023/01/01 05:46:53;;;;;;;5.30;4.00;;;;;;;12.68;74.68;100313.45;107649;1251;96048;-59
2023/01/01 05:49:35;;;;;;;4.60;3.30;;;;;;;12.67;74.52;100314.66;107663;1251;81250;-58
2023/01/01 05:52:18;;;;;;;5.60;3.60;;;;;;;12.66;74.50;100321.95;107714;1251;82892;-62
2023/01/01 05:54:57;;;;;;;6.30;4.30;;;;;;;12.62;74.47;100320.49;107699;1251;100066;-62
2023/01/01 05:57:40;;;;;;;5.80;3.70;;;;;;;12.62;74.55;100323.36;107723;1251;87705;-60
2023/01/01 06:00:17;;;;;;;5.60;3.60;;;;;;;12.62;74.51;100332.70;107674;1251;95288;-58
2023/01/01 06:02:56;;;;;;;6.40;4.70;;;;;;;12.64;74.58;100332.49;107757;1256;80153;-58
2023/01/01 06:05:37;;;;;;;5.60;3.90;;;;;;;12.62;74.45;100333.80;107672;1251;82597;-58
2023/01/01 06:08:21;;;;;;;4.40;3.20;;;;;;;12.62;74.55;100336.54;107742;1251;99016;-55
2023/01/01 06:11:06;;;;;;;6.50;4.00;;;;;;;12.58;74.45;100336.20;107708;1251;87147;-55
2023/01/01 06:13:51;;;;;;;5.70;3.80;;;;;;;12.52;74.28;100343.14;107689;1251;94408;-57
2023/01/01 06:16:35;;;;;;;7.60;3.80;;;;;;;12.50;74.17;100341.67;107684;1251;82366;-57
2023/01/01 06:19:12;;;;;;;5.70;3.50;;;;;;;12.47;74.35;100339.49;107669;1251;83123;-57
2023/01/01 06:21:57;;;;;;;5.40;3.60;;;;;;;12.46;74.26;100342.11;107636;1251;99613;-57
2023/01/01 06:24:43;;;;;;;5.30;3.20;;;;;;;12.44;74.16;100343.61;107691;1251;89166;-58
2023/01/01 06:27:20;;;;;;;6.30;4.20;;;;;;;12.43;74.31;100347.35;107704;1256;95619;-57
2023/01/01 06:30:00;;;;;;;5.40;3.80;;;;;;;12.36;74.37;100351.36;107604;1254;80916;-56
2023/01/01 06:32:46;;;;;;;4.70;3.20;;;;;;;12.31;74.36;100356.69;107584;1254;80850;-61
2023/01/01 06:35:26;;;;;;;;;;;;;;;12.27;74.49;100359.66;107296;1254;445349;-59
2023/01/01 06:38:04;;;;;;;6.70;3.40;;;;;;;12.22;74.51;100357.80;107639;1253;86368;-61
2023/01/01 06:40:44;;;;;;;5.40;3.60;;;;;;;12.17;74.60;100358.79;107486;1254;94894;-59
2023/01/01 06:43:26;;;;;;;6.90;3.40;;;;;;;12.14;74.58;100360.68;107601;1256;81251;-57
2023/01/01 06:46:15;;;;;;;6.10;3.90;;;;;;;12.13;74.67;100361.01;107617;1254;81907;-57
2023/01/01 06:48:59;;;;;;;6.40;3.50;;;;;;;12.16;74.58;100355.61;107645;1254;100315;-57
2023/01/01 06:51:37;;;;;;;6.00;3.50;;;;;;;12.26;74.49;100360.88;107611;1254;89123;-60
2023/01/01 06:54:17;;;;;;;4.40;3.30;;;;;;;12.30;74.28;100359.89;107677;1254;94110;-59
2023/01/01 06:56:55;;;;;;;5.70;3.60;;;;;;;12.32;74.29;100368.11;107693;1254;80178;-56
2023/01/01 06:59:35;;;;;;;6.60;3.30;;;;;;;12.31;74.24;100366.10;107679;1253;83425;-57
2023/01/01 07:02:14;;;;;;;7.00;3.50;;;;;;;12.30;74.25;100369.64;107646;1254;99688;-62
2023/01/01 07:04:50;;;;;;;5.80;3.00;;;;;;;12.31;74.23;100375.69;107609;1252;87521;-59
2023/01/01 07:07:28;;;;;;;5.90;3.30;;;;;;;12.32;74.27;100378.07;107598;1254;95380;-58
2023/01/01 07:10:08;;;;;;;4.70;2.90;;;;;;;12.34;74.26;100379.96;107607;1253;79992;-58
2023/01/01 07:12:48;;;;;;;7.30;3.50;;;;;;;12.38;74.15;100386.02;107635;1254;82187;-56
2023/01/01 07:15:24;;;;;;;4.60;3.30;;;;;;;12.39;74.08;100382.35;107597;1254;99072;-56
2023/01/01 07:18:04;;;;;;;5.70;3.70;;;;;;;12.42;73.95;100382.52;107632;1252;88580;-56
2023/01/01 07:20:39;;;;;;;7.00;3.30;;;;;;;12.46;73.89;100385.85;107615;1255;94379;-56
2023/01/01 07:23:18;;;;;;;5.20;3.20;;;;;;;12.49;73.66;100391.06;107470;1253;79692;-56
2023/01/01 07:26:02;;;;;;;6.20;3.50;;;;;;;12.52;73.60;100395.38;107630;1252;82419;-55
2023/01/01 07:28:40;;;;;;;5.40;3.50;;;;;;;12.54;73.49;100405.42;107677;1251;99621;-60
2023/01/01 07:31:19;;;;;;;5.50;3.30;;;;;;;12.57;73.45;100406.56;107710;1255;86680;-59
2023/01/01 07:33:56;;;;;;;5.90;3.60;;;;;;;12.63;73.55;100410.09;107651;1251;94994;-58
2023/01/01 07:36:42;;;;;;;5.10;3.10;;;;;;;12.70;73.31;100419.38;107703;1256;81177;-56
2023/01/01 07:39:29;;;;;;;5.90;3.40;;;;;;;12.78;73.06;100421.33;107666;1251;82265;-56
2023/01/01 07:42:04;;;;;;;5.60;3.40;;;;;;;12.89;73.06;100425.45;107715;1251;97910;-56
2023/01/01 07:44:47;;;;;;;12.60;4.90;;;;;;;12.96;72.91;100420.84;107724;1251;87200;-56
2023/01/01 07:47:31;;;;;;;6.00;3.30;;;;;;;13.12;72.80;100424.34;107694;1251;94555;-58
2023/01/01 07:50:21;;;;;;;5.50;3.10;;;;;;;13.38;72.09;100426.90;107724;1251;84373;-58
2023/01/01 07:53:02;;;;;;;6.60;3.90;;;;;;;13.52;71.89;100432.97;107702;1251;82586;-58
2023/01/01 07:55:39;;;;;;;9.30;4.20;;;;;;;13.68;71.49;100433.77;107679;1251;99332;-61
2023/01/01 07:58:19;;;;;;;6.50;3.90;;;;;;;13.78;71.19;100433.55;107673;1251;89443;-57
2023/01/01 08:00:58;;;;;;;7.10;3.60;;;;;;;13.90;71.14;100442.05;107661;1251;92726;-57
2023/01/01 08:03:37;;;;;;;5.50;3.80;;;;;;;13.95;70.68;100445.88;107703;1251;78300;-59
2023/01/01 08:06:15;;;;;;;5.20;4.00;;;;;;;14.04;70.44;100446.08;107668;1251;83436;-59
2023/01/01 08:08:53;;;;;;;5.00;3.20;;;;;;;14.13;70.40;100453.14;107703;1251;99259;-56
2023/01/01 08:11:32;;;;;;;6.10;3.20;;;;;;;14.21;70.43;100463.27;107694;1251;86922;-56
2023/01/01 08:14:15;;;;;;;6.70;3.50;;;;;;;14.21;69.68;100465.63;107670;1251;93825;-56
2023/01/01 08:16:59;;;;;;;5.50;3.60;;;;;;;14.13;69.62;100468.35;107675;1251;81135;-58
2023/01/01 08:19:39;;;;;;;5.70;3.30;;;;;;;14.05;69.44;100466.72;107660;1251;82949;-59
2023/01/01 08:22:26;;;;;;;6.90;3.90;;;;;;;13.97;69.52;100467.17;107704;1254;97657;-56
2023/01/01 08:25:08;;;;;;;5.80;3.20;;;;;;;13.93;69.38;100465.56;107666;1251;88815;-56
2023/01/01 08:27:47;;;;;;;5.50;3.00;;;;;;;13.92;69.34;100468.41;107653;1251;94501;-57
2023/01/01 08:30:22;;;;;;;7.10;4.10;;;;;;;13.95;69.36;100474.21;107683;1251;79317;-56
2023/01/01 08:32:59;;;;;;;;;;;;;;;13.98;69.60;100476.00;107698;1251;82413;-56
2023/01/01 08:35:38;;;;;;;7.30;3.30;;;;;;;14.02;69.42;100479.64;107678;1256;99832;-55
2023/01/01 08:38:22;;;;;;;6.60;3.30;;;;;;;14.08;69.52;100475.91;107711;1251;87296;-56
2023/01/01 08:41:01;;;;;;;5.50;3.80;;;;;;;14.46;69.19;100478.60;107696;1251;94404;-56
2023/01/01 08:43:48;;;;;;;6.30;3.70;;;;;;;14.65;68.86;100477.98;107660;1251;78539;-57
2023/01/01 08:46:26;;;;;;;6.30;3.10;;;;;;;14.73;68.63;100482.25;107726;1251;82607;-58
2023/01/01 08:49:07;;;;;;;8.90;3.60;;;;;;;14.73;68.60;100480.58;107695;1251;100390;-55
2023/01/01 08:51:44;;;;;;;6.50;3.30;;;;;;;14.74;68.33;100484.25;107720;1251;88898;-60
2023/01/01 08:54:30;;;;;;;7.20;3.00;;;;;;;14.79;68.37;100488.85;107654;1251;94664;-60
2023/01/01 08:57:07;;;;;;;12.40;3.00;;;;;;;14.86;68.01;100490.41;107686;1251;80451;-56
2023/01/01 08:59:52;;;;;;;6.30;3.10;;;;;;;15.00;67.63;100494.12;107675;1251;82526;-56
2023/01/01 09:02:44;;;;;;;6.50;3.10;;;;;;;15.28;68.06;100500.77;107697;1255;100103;-60
2023/01/01 09:05:19;;;;;;;5.90;3.20;;;;;;;15.82;67.60;100497.08;107646;1251;88797;-60
2023/01/01 09:08:03;;;;;;;7.00;2.90;;;;;;;16.65;66.47;100498.67;107658;1251;95506;-59
2023/01/01 09:10:43;;;;;;;6.80;3.10;;;;;;;17.42;65.79;100497.86;107646;1251;78630;-60
2023/01/01 09:13:25;;;;;;;4.10;2.70;;;;;;;17.90;64.33;100501.02;107729;1251;83114;-59
2023/01/01 09:16:03;;;;;;;6.70;3.30;;;;;;;18.16;64.88;100504.05;107720;1255;100231;-58
2023/01/01 09:18:47;;;;;;;6.40;3.00;;;;;;;18.38;64.34;100499.37;107706;1251;88659;-59
2023/01/01 09:21:40;;;;;;;6.10;3.00;;;;;;;18.46;62.41;100501.61;107696;1251;94563;-58
2023/01/01 09:24:16;;;;;;;8.90;2.90;;;;;;;18.21;62.55;100503.52;107697;1255;80251;-59
2023/01/01 09:26:54;;;;;;;8.90;3.40;;;;;;;18.04;62.13;100504.48;107668;1251;83465;-57
2023/01/01 09:29:30;;;;;;;9.00;3.00;;;;;;;17.82;62.04;100503.61;107710;1251;98196;-58
2023/01/01 09:32:17;;;;;;;4.30;2.70;;;;;;;17.53;61.83;100501.37;107724;1251;88269;-59
2023/01/01 09:35:00;;;;;;;7.00;2.90;;;;;;;17.31;61.40;100501.00;107583;1251;93961;-60
2023/01/01 09:37:45;;;;;;;10.10;3.80;;;;;;;17.13;61.66;100495.05;107659;1251;79935;-60
2023/01/01 09:40:38;;;;;;;6.30;2.90;;;;;;;17.00;62.12;100498.52;107659;1251;83288;-59
2023/01/01 09:43:41;;;;;;;6.50;3.40;;;;;;;16.89;62.20;100495.44;107676;1251;99041;-59
2023/01/01 09:46:25;;;;;;;6.90;3.10;;;;;;;16.77;62.06;100494.52;107672;1256;89290;-61
2023/01/01 09:49:09;;;;;;;9.60;4.40;;;;;;;16.73;61.89;100490.16;107592;1251;95483;-57
2023/01/01 09:51:57;;;;;;;7.20;3.40;;;;;;;16.72;62.05;100490.05;107488;1254;79703;-58
2023/01/01 09:54:50;;;;;;;7.40;3.60;;;;;;;16.73;61.79;100494.45;107648;1254;80422;-58
2023/01/01 09:57:39;;;;;;;7.00;3.00;;;;;;;16.92;61.95;100498.50;107427;1256;99971;-58
2023/01/01 10:00:39;;;;;;;6.30;3.20;;;;;;;17.07;61.59;100496.18;107492;1254;88380;-59
2023/01/01 10:03:43;;;;;;;5.80;3.00;;;;;;;17.04;61.25;100494.46;107475;1254;94169;-56
2023/01/01 10:06:28;;;;;;;7.30;2.90;;;;;;;17.01;61.60;100489.74;107473;1256;80286;-57
2023/01/01 10:09:15;;;;;;;8.70;3.30;;;;;;;16.98;60.76;100491.12;107541;1253;82008;-57
2023/01/01 10:12:01;;;;;;;7.60;2.90;;;;;;;16.99;60.96;100490.87;107637;1256;99590;-56
2023/01/01 10:14:48;;;;;;;8.90;3.20;;;;;;;17.00;60.89;100483.42;107652;1254;88429;-56
2023/01/01 10:17:34;;;;;;;8.90;3.00;;;;;;;17.02;60.89;100483.77;107665;1254;95184;-58
2023/01/01 10:20:20;;;;;;;7.00;3.30;;;;;;;17.04;60.82;100481.48;107623;1254;80555;-59
2023/01/01 10:23:13;;;;;;;6.40;3.00;;;;;;;17.03;60.30;100480.98;107681;1256;82791;-58
2023/01/01 10:25:50;;;;;;;9.60;4.00;;;;;;;17.04;60.56;100479.13;107673;1256;100253;-56
2023/01/01 10:28:43;;;;;;;7.40;3.10;;;;;;;17.09;60.49;100475.77;107657;1254;86642;-56
2023/01/01 10:31:32;;;;;;;9.80;3.30;;;;;;;17.11;59.76;100470.42;107614;1254;93892;-57
2023/01/01 10:34:31;;;;;;;8.50;3.70;;;;;;;17.12;59.76;100473.60;107613;1254;79073;-58
2023/01/01 10:37:13;;;;;;;8.40;4.70;;;;;;;17.12;59.86;100470.16;107581;1256;82873;-57
2023/01/01 10:39:51;;;;;;;7.50;4.60;;;;;;;17.17;59.87;100469.09;107584;1254;98420;-57
2023/01/01 10:42:31;;;;;;;8.30;3.00;;;;;;;17.20;59.39;100465.42;107577;1254;89480;-56
2023/01/01 10:45:15;;;;;;;8.60;3.20;;;;;;;17.23;57.91;100465.93;107568;1253;95026;-57
2023/01/01 10:48:15;;;;;;;5.70;2.80;;;;;;;17.24;58.58;100467.19;107649;1256;78837;-59
2023/01/01 10:50:54;;;;;;;8.60;3.00;;;;;;;17.26;58.91;100460.99;107617;1254;81889;-58
2023/01/01 10:53:33;;;;;;;9.80;3.10;;;;;;;17.27;57.96;100461.89;107621;1254;99147;-58
2023/01/01 10:56:18;;;;;;;10.90;2.70;;;;;;;17.28;58.30;100458.71;107620;1254;89025;-59
2023/01/01 10:58:55;;;;;;;7.60;3.10;;;;;;;17.28;58.38;100453.20;107635;1254;94707;-58
2023/01/01 11:01:37;;;;;;;8.10;3.00;;;;;;;17.28;58.19;100450.46;107655;1254;79575;-58
2023/01/01 11:04:23;;;;;;;10.90;3.50;;;;;;;17.27;57.87;100445.35;107662;1255;83507;-59
2023/01/01 11:06:59;;;;;;;7.80;3.50;;;;;;;17.24;57.80;100447.79;107639;1254;100169;-59
2023/01/01 11:09:37;;;;;;;8.50;3.50;;;;;;;17.20;58.01;100446.96;107628;1254;87404;-59
2023/01/01 11:12:22;;;;;;;8.50;3.20;;;;;;;17.18;57.68;100453.63;107652;1256;94641;-56
2023/01/01 11:14:58;;;;;;;9.00;2.70;;;;;;;17.22;57.75;100451.49;107612;1254;79260;-58
2023/01/01 11:17:43;;;;;;;9.40;3.60;;;;;;;17.29;57.72;100453.72;107636;1254;82048;-56
2023/01/01 11:20:22;;;;;;;5.80;3.10;;;;;;;17.37;57.16;100451.08;107617;1256;98424;-59
2023/01/01 11:23:19;;;;;;;10.20;3.20;;;;;;;17.48;56.60;100450.20;107630;1254;88860;-56
2023/01/01 11:26:20;;;;;;;9.80;4.00;;;;;;;17.60;56.89;100449.84;107597;1252;96060;-57
2023/01/01 11:29:27;;;;;;;7.60;3.20;;;;;;;17.67;56.68;100446.45;107474;1258;79943;-59
2023/01/01 11:32:18;;;;;;;8.20;3.30;;;;;;;17.68;56.38;100444.99;107624;1256;80933;-59
2023/01/01 11:35:06;;;;;;;5.90;2.80;;;;;;;17.62;56.64;100444.08;107467;1259;97234;-58
2023/01/01 11:37:45;;;;;;;8.10;3.50;;;;;;;17.54;56.24;100445.55;107637;1255;88832;-58
2023/01/01 11:40:24;;;;;;;8.10;3.50;;;;;;;17.45;56.33;100442.78;107619;1254;94893;-59
2023/01/01 11:43:01;;;;;;;7.60;3.10;;;;;;;17.37;56.18;100447.26;107622;1257;78980;-59
2023/01/01 11:45:43;;;;;;;12.10;3.80;;;;;;;17.35;56.46;100442.95;107649;1253;82900;-57
2023/01/01 11:48:25;;;;;;;6.30;3.00;;;;;;;17.33;56.37;100438.53;107596;1256;99834;-55
2023/01/01 11:51:04;;;;;;;6.80;3.40;;;;;;;17.30;56.56;100438.83;107672;1255;87734;-59
2023/01/01 11:53:42;;;;;;;12.00;3.80;;;;;;;17.24;55.82;100438.33;107655;1255;92472;-57
2023/01/01 11:56:28;;;;;;;6.80;2.80;;;;;;;17.19;56.38;100444.10;107642;1256;78469;-58
2023/01/01 11:59:14;;;;;;;8.40;2.80;;;;;;;17.15;56.53;100450.09;107610;1254;81806;-57
2023/01/01 12:02:00;;;;;;;9.30;2.80;;;;;;;17.11;56.53;100453.88;107634;1254;99251;-58
2023/01/01 12:04:44;;;;;;;10.40;3.20;;;;;;;17.09;56.15;100458.94;107623;1254;88674;-58
2023/01/01 12:07:25;;;;;;;7.10;4.10;;;;;;;17.07;56.10;100456.95;107478;1254;94061;-59
2023/01/01 12:10:07;;;;;;;10.50;3.40;;;;;;;17.09;55.67;100464.48;107333;1255;81011;-59
2023/01/01 12:12:48;;;;;;;9.00;2.90;;;;;;;17.13;56.46;100473.27;107615;1253;83172;-56
2023/01/01 12:15:32;;;;;;;10.30;3.10;;;;;;;17.15;56.48;100468.77;107644;1255;97247;-59
2023/01/01 12:18:18;;;;;;;9.10;3.80;;;;;;;17.18;55.88;100463.45;107614;1255;88637;-58
2023/01/01 12:21:05;;;;;;;6.80;2.80;;;;;;;17.22;56.34;100459.15;107594;1253;95757;-58
2023/01/01 12:23:46;;;;;;;9.50;3.40;;;;;;;17.24;55.89;100455.02;107656;1254;78226;-59
2023/01/01 12:26:36;;;;;;;9.30;2.90;;;;;;;17.26;56.10;100458.21;107611;1254;83056;-57
2023/01/01 12:29:36;;;;;;;6.90;2.90;;;;;;;17.27;56.12;100450.77;107636;1256;99484;-56